^^
Station Historical Data
Daily Summary for July 12, 2018 Units:  Both    English   Metric
« Previous Day
Next Day »
Daily Weekly Monthly Yearly Custom
  High: Low: Average:
Temperature: TemperatureF °F /  -17.8 °C 66.2 °F /  19 °C 73.4 °F /  23 °C
Dew Point: DewpointF °F /  -17.8 °C 65.3 °F /  18.5 °C 69 °F /  20.6 °C
Humidity: Humidity% 53% 87%
Wind Speed: WindSpeedMPHmph /  0km/h - 0.6mph /  1km/h
Wind Gust: WindSpeedGustMPHmph /  0km/h - -
Wind- - SSE
Pressure: PressureIn in /  0 hPa 30.38 in /  1028.7 hPa -
Precipitation: 1.05 in /  26.67 mm    
Historical Graphs
 
 
Tabular Data for July 12, 2018
Time Temperature Dew Point Pressure Wind Wind Speed Wind Gust Humidity Rainfall Rate (Hourly)
TemperatureF °F /  -17.8 °C DewpointF °F /  -17.8 °C PressureInin /  0hPa Calm     Humidity% HourlyPrecipInin /  0mm
00:03 68.7 °F /  20.4 °C 67.8 °F /  19.9 °C 30.43in /  1030.4hPa Calm     97% 0.00in /  0mm
00:08 68.7 °F /  20.4 °C 67.8 °F /  19.9 °C 30.43in /  1030.4hPa Calm     97% 0.00in /  0mm
00:13 68.5 °F /  20.3 °C 67.6 °F /  19.8 °C 30.43in /  1030.4hPa Calm     97% 0.00in /  0mm
00:19 68.5 °F /  20.3 °C 67.6 °F /  19.8 °C 30.43in /  1030.4hPa Calm     97% 0.00in /  0mm
00:24 68.5 °F /  20.3 °C 67.6 °F /  19.8 °C 30.43in /  1030.4hPa Calm     97% 0.00in /  0mm
00:39 68.4 °F /  20.2 °C 67.5 °F /  19.7 °C 30.43in /  1030.4hPa Calm     97% 0.00in /  0mm
00:44 68.2 °F /  20.1 °C 67.3 °F /  19.6 °C 30.43in /  1030.4hPa Calm     97% 0.00in /  0mm
00:49 68.2 °F /  20.1 °C 67.6 °F /  19.8 °C 30.43in /  1030.4hPa Calm     98% 0.00in /  0mm
00:54 68.0 °F /  20 °C 67.5 °F /  19.7 °C 30.43in /  1030.4hPa Calm     98% 0.00in /  0mm
00:59 67.8 °F /  19.9 °C 67.3 °F /  19.6 °C 30.43in /  1030.4hPa Calm     98% 0.00in /  0mm
01:04 67.8 °F /  19.9 °C 67.3 °F /  19.6 °C 30.42in /  1030hPa Calm     98% 0.00in /  0mm
01:09 67.6 °F /  19.8 °C 67.1 °F /  19.5 °C 30.42in /  1030hPa Calm     98% 0.00in /  0mm
01:44 68.0 °F /  20 °C 67.5 °F /  19.7 °C 30.42in /  1030hPa Calm     98% 0.00in /  0mm
01:49 68.2 °F /  20.1 °C 67.6 °F /  19.8 °C 30.43in /  1030.4hPa Calm     98% 0.00in /  0mm
01:54 68.2 °F /  20.1 °C 67.6 °F /  19.8 °C 30.42in /  1030hPa Calm     98% 0.00in /  0mm
01:59 68.2 °F /  20.1 °C 67.6 °F /  19.8 °C 30.42in /  1030hPa Calm     98% 0.00in /  0mm
02:04 68.2 °F /  20.1 °C 67.6 °F /  19.8 °C 30.42in /  1030hPa Calm     98% 0.00in /  0mm
02:09 68.4 °F /  20.2 °C 67.8 °F /  19.9 °C 30.42in /  1030hPa Calm     98% 0.00in /  0mm
02:14 68.4 °F /  20.2 °C 67.8 °F /  19.9 °C 30.42in /  1030hPa Calm     98% 0.00in /  0mm
02:19 68.2 °F /  20.1 °C 67.6 °F /  19.8 °C 30.42in /  1030hPa Calm     98% 0.00in /  0mm
02:24 68.2 °F /  20.1 °C 67.6 °F /  19.8 °C 30.42in /  1030hPa WNW 0.9mph /  1.4km/h 1.0mph /  1.6km/h 98% 0.00in /  0mm
02:29 68.2 °F /  20.1 °C 67.6 °F /  19.8 °C 30.42in /  1030hPa SE 0.9mph /  1.4km/h 2.0mph /  3.2km/h 98% 0.00in /  0mm
02:39 68.0 °F /  20 °C 67.5 °F /  19.7 °C 30.42in /  1030hPa Calm   1.0mph /  1.6km/h 98% 0.00in /  0mm
02:44 67.8 °F /  19.9 °C 67.3 °F /  19.6 °C 30.42in /  1030hPa Calm     98% 0.00in /  0mm
02:50 68.0 °F /  20 °C 67.5 °F /  19.7 °C 30.42in /  1030hPa Calm     98% 0.00in /  0mm
03:10 67.8 °F /  19.9 °C 67.3 °F /  19.6 °C 30.42in /  1030hPa Calm     98% 0.00in /  0mm
03:15 67.8 °F /  19.9 °C 67.3 °F /  19.6 °C 30.42in /  1030hPa Calm     98% 0.00in /  0mm
03:30 67.8 °F /  19.9 °C 67.3 °F /  19.6 °C 30.42in /  1030hPa ESE 0.9mph /  1.4km/h 1.0mph /  1.6km/h 98% 0.00in /  0mm
03:35 67.6 °F /  19.8 °C 67.1 °F /  19.5 °C 30.42in /  1030hPa Calm   2.0mph /  3.2km/h 98% 0.00in /  0mm
03:40 67.6 °F /  19.8 °C 67.1 °F /  19.5 °C 30.42in /  1030hPa Calm     98% 0.00in /  0mm
03:50 67.6 °F /  19.8 °C 67.1 °F /  19.5 °C 30.42in /  1030hPa Calm     98% 0.00in /  0mm
03:55 67.6 °F /  19.8 °C 67.1 °F /  19.5 °C 30.42in /  1030hPa NE 0.9mph /  1.4km/h 2.0mph /  3.2km/h 98% 0.00in /  0mm
04:00 67.8 °F /  19.9 °C 67.3 °F /  19.6 °C 30.42in /  1030hPa ESE 0.9mph /  1.4km/h 2.0mph /  3.2km/h 98% 0.00in /  0mm
04:05 67.8 °F /  19.9 °C 67.3 °F /  19.6 °C 30.42in /  1030hPa Calm     98% 0.00in /  0mm
04:10 67.8 °F /  19.9 °C 67.3 °F /  19.6 °C 30.42in /  1030hPa Calm   1.0mph /  1.6km/h 98% 0.00in /  0mm
04:15 67.8 °F /  19.9 °C 67.3 °F /  19.6 °C 30.42in /  1030hPa Calm   1.0mph /  1.6km/h 98% 0.00in /  0mm
04:25 67.6 °F /  19.8 °C 66.7 °F /  19.3 °C 30.42in /  1030hPa Calm   1.0mph /  1.6km/h 97% 0.00in /  0mm
04:30 67.8 °F /  19.9 °C 67.3 °F /  19.6 °C 30.42in /  1030hPa Calm     98% 0.00in /  0mm
04:35 67.6 °F /  19.8 °C 66.7 °F /  19.3 °C 30.42in /  1030hPa Calm     97% 0.00in /  0mm
04:40 67.6 °F /  19.8 °C 66.7 °F /  19.3 °C 30.42in /  1030hPa Calm     97% 0.00in /  0mm
04:45 67.5 °F /  19.7 °C 66.6 °F /  19.2 °C 30.42in /  1030hPa Calm     97% 0.00in /  0mm
04:50 67.5 °F /  19.7 °C 66.6 °F /  19.2 °C 30.42in /  1030hPa Calm     97% 0.00in /  0mm
04:55 67.5 °F /  19.7 °C 66.6 °F /  19.2 °C 30.42in /  1030hPa Calm   1.0mph /  1.6km/h 97% 0.00in /  0mm
05:00 67.5 °F /  19.7 °C 66.6 °F /  19.2 °C 30.42in /  1030hPa Calm     97% 0.00in /  0mm
05:05 67.5 °F /  19.7 °C 66.6 °F /  19.2 °C 30.42in /  1030hPa Calm     97% 0.00in /  0mm
05:10 67.3 °F /  19.6 °C 66.4 °F /  19.1 °C 30.42in /  1030hPa Calm   1.0mph /  1.6km/h 97% 0.00in /  0mm
05:15 67.3 °F /  19.6 °C 66.4 °F /  19.1 °C 30.42in /  1030hPa Calm     97% 0.00in /  0mm
05:20 67.3 °F /  19.6 °C 66.4 °F /  19.1 °C 30.42in /  1030hPa Calm   1.0mph /  1.6km/h 97% 0.00in /  0mm
05:25 67.3 °F /  19.6 °C 66.4 °F /  19.1 °C 30.42in /  1030hPa ESE 0.9mph /  1.4km/h 1.0mph /  1.6km/h 97% 0.00in /  0mm
05:30 67.3 °F /  19.6 °C 66.4 °F /  19.1 °C 30.42in /  1030hPa SE 0.9mph /  1.4km/h 1.0mph /  1.6km/h 97% 0.00in /  0mm
05:35 67.1 °F /  19.5 °C 66.2 °F /  19 °C 30.42in /  1030hPa SE 0.9mph /  1.4km/h 1.0mph /  1.6km/h 97% 0.00in /  0mm
05:40 67.1 °F /  19.5 °C 66.2 °F /  19 °C 30.42in /  1030hPa Calm   3.0mph /  4.8km/h 97% 0.00in /  0mm
05:45 67.1 °F /  19.5 °C 66.2 °F /  19 °C 30.42in /  1030hPa ENE 0.9mph /  1.4km/h 3.0mph /  4.8km/h 97% 0.00in /  0mm
05:50 66.9 °F /  19.4 °C 66.0 °F /  18.9 °C 30.42in /  1030hPa SW 0.9mph /  1.4km/h 2.0mph /  3.2km/h 97% 0.00in /  0mm
05:55 66.9 °F /  19.4 °C 66.0 °F /  18.9 °C 30.42in /  1030hPa Calm     97% 0.00in /  0mm
06:15 66.9 °F /  19.4 °C 66.0 °F /  18.9 °C 30.42in /  1030hPa Calm     97% 0.00in /  0mm
06:20 66.9 °F /  19.4 °C 66.0 °F /  18.9 °C 30.42in /  1030hPa Calm   1.0mph /  1.6km/h 97% 0.00in /  0mm
06:26 66.7 °F /  19.3 °C 65.8 °F /  18.8 °C 30.42in /  1030hPa Calm     97% 0.00in /  0mm
06:31 66.6 °F /  19.2 °C 65.7 °F /  18.7 °C 30.42in /  1030hPa Calm     97% 0.00in /  0mm
06:36 66.6 °F /  19.2 °C 65.7 °F /  18.7 °C 30.42in /  1030hPa Calm     97% 0.00in /  0mm
06:41 66.4 °F /  19.1 °C 65.5 °F /  18.6 °C 30.42in /  1030hPa Calm   1.0mph /  1.6km/h 97% 0.00in /  0mm
06:46 66.4 °F /  19.1 °C 65.5 °F /  18.6 °C 30.42in /  1030hPa Calm     97% 0.00in /  0mm
06:51 66.4 °F /  19.1 °C 65.5 °F /  18.6 °C 30.42in /  1030hPa Calm     97% 0.00in /  0mm
06:56 66.4 °F /  19.1 °C 65.5 °F /  18.6 °C 30.42in /  1030hPa Calm     97% 0.00in /  0mm
07:01 66.2 °F /  19 °C 65.3 °F /  18.5 °C 30.43in /  1030.4hPa Calm     97% 0.00in /  0mm
07:06 66.4 °F /  19.1 °C 65.5 °F /  18.6 °C 30.43in /  1030.4hPa Calm     97% 0.00in /  0mm
07:11 66.6 °F /  19.2 °C 65.7 °F /  18.7 °C 30.43in /  1030.4hPa ENE 0.9mph /  1.4km/h 1.0mph /  1.6km/h 97% 0.00in /  0mm
07:21 66.6 °F /  19.2 °C 65.3 °F /  18.5 °C 30.43in /  1030.4hPa Calm     96% 0.00in /  0mm
07:26 66.7 °F /  19.3 °C 65.5 °F /  18.6 °C 30.43in /  1030.4hPa Calm     96% 0.00in /  0mm
07:31 66.9 °F /  19.4 °C 65.7 °F /  18.7 °C 30.43in /  1030.4hPa Calm   2.0mph /  3.2km/h 96% 0.00in /  0mm
07:46 67.5 °F /  19.7 °C 65.7 °F /  18.7 °C 30.44in /  1030.7hPa ESE 0.9mph /  1.4km/h 1.0mph /  1.6km/h 94% 0.00in /  0mm
08:01 68.2 °F /  20.1 °C 66.4 °F /  19.1 °C 30.44in /  1030.7hPa Calm     94% 0.00in /  0mm
08:11 68.5 °F /  20.3 °C 66.4 °F /  19.1 °C 30.44in /  1030.7hPa Calm   1.0mph /  1.6km/h 93% 0.00in /  0mm
08:26 71.1 °F /  21.7 °C 67.6 °F /  19.8 °C 30.45in /  1031hPa Calm   1.0mph /  1.6km/h 89% 0.00in /  0mm
08:32 72.0 °F /  22.2 °C 67.8 °F /  19.9 °C 30.45in /  1031hPa ESE 0.9mph /  1.4km/h 1.0mph /  1.6km/h 87% 0.00in /  0mm
08:37 72.7 °F /  22.6 °C 68.2 °F /  20.1 °C 30.45in /  1031hPa SE 0.9mph /  1.4km/h 2.0mph /  3.2km/h 86% 0.00in /  0mm
08:42 73.0 °F /  22.8 °C 68.2 °F /  20.1 °C 30.45in /  1031hPa Calm   1.0mph /  1.6km/h 85% 0.00in /  0mm
08:47 73.8 °F /  23.2 °C 68.4 °F /  20.2 °C 30.45in /  1031hPa WSW 0.9mph /  1.4km/h 2.0mph /  3.2km/h 83% 0.00in /  0mm
08:52 73.4 °F /  23 °C 68.2 °F /  20.1 °C 30.45in /  1031hPa ESE 2.0mph /  3.2km/h 2.0mph /  3.2km/h 84% 0.00in /  0mm
08:57 73.0 °F /  22.8 °C 68.2 °F /  20.1 °C 30.45in /  1031hPa ESE 0.9mph /  1.4km/h 2.0mph /  3.2km/h 85% 0.00in /  0mm
09:02 73.2 °F /  22.9 °C 68.4 °F /  20.2 °C 30.45in /  1031hPa East 0.9mph /  1.4km/h 2.0mph /  3.2km/h 85% 0.00in /  0mm
09:07 73.2 °F /  22.9 °C 68.4 °F /  20.2 °C 30.45in /  1031hPa Calm   1.0mph /  1.6km/h 85% 0.00in /  0mm
09:12 73.9 °F /  23.3 °C 68.7 °F /  20.4 °C 30.45in /  1031hPa Calm   2.0mph /  3.2km/h 84% 0.00in /  0mm
09:22 75.9 °F /  24.4 °C 70.0 °F /  21.1 °C 30.45in /  1031hPa Calm     82% 0.00in /  0mm
09:27 76.5 °F /  24.7 °C 70.2 °F /  21.2 °C 30.45in /  1031hPa Calm   1.0mph /  1.6km/h 81% 0.00in /  0mm
09:32 77.0 °F /  25 °C 70.3 °F /  21.3 °C 30.44in /  1030.7hPa Calm   1.0mph /  1.6km/h 80% 0.00in /  0mm
09:37 77.2 °F /  25.1 °C 69.8 °F /  21 °C 30.44in /  1030.7hPa Calm   2.0mph /  3.2km/h 78% 0.00in /  0mm
09:47 77.4 °F /  25.2 °C 69.6 °F /  20.9 °C 30.44in /  1030.7hPa West 0.9mph /  1.4km/h 2.0mph /  3.2km/h 77% 0.00in /  0mm
09:52 77.2 °F /  25.1 °C 69.8 °F /  21 °C 30.44in /  1030.7hPa Calm   2.0mph /  3.2km/h 78% 0.00in /  0mm
09:57 78.4 °F /  25.8 °C 71.1 °F /  21.7 °C 30.44in /  1030.7hPa West 0.9mph /  1.4km/h 1.0mph /  1.6km/h 78% 0.00in /  0mm
10:12 78.4 °F /  25.8 °C 70.7 °F /  21.5 °C 30.44in /  1030.7hPa ENE 2.0mph /  3.2km/h 3.0mph /  4.8km/h 77% 0.00in /  0mm
10:17 78.8 °F /  26 °C 71.4 °F /  21.9 °C 30.44in /  1030.7hPa SE 0.9mph /  1.4km/h 1.0mph /  1.6km/h 78% 0.00in /  0mm
10:23 79.0 °F /  26.1 °C 71.6 °F /  22 °C 30.44in /  1030.7hPa ESE 0.9mph /  1.4km/h 2.0mph /  3.2km/h 78% 0.00in /  0mm
10:28 79.2 °F /  26.2 °C 70.9 °F /  21.6 °C 30.44in /  1030.7hPa SE 0.9mph /  1.4km/h 2.0mph /  3.2km/h 76% 0.00in /  0mm
10:33 79.5 °F /  26.4 °C 71.2 °F /  21.8 °C 30.44in /  1030.7hPa Calm   2.0mph /  3.2km/h 76% 0.00in /  0mm
10:38 79.2 °F /  26.2 °C 70.5 °F /  21.4 °C 30.44in /  1030.7hPa SE 0.9mph /  1.4km/h 3.0mph /  4.8km/h 75% 0.00in /  0mm
10:43 79.3 °F /  26.3 °C 71.1 °F /  21.7 °C 30.44in /  1030.7hPa ENE 0.9mph /  1.4km/h 2.0mph /  3.2km/h 76% 0.00in /  0mm
11:13 81.7 °F /  27.6 °C 71.8 °F /  22.1 °C 30.44in /  1030.7hPa Calm   1.0mph /  1.6km/h 72% 0.00in /  0mm
11:18 82.0 °F /  27.8 °C 71.8 °F /  22.1 °C 30.44in /  1030.7hPa Calm   4.0mph /  6.4km/h 71% 0.00in /  0mm
11:38 83.8 °F /  28.8 °C 72.5 °F /  22.5 °C 30.44in /  1030.7hPa ENE 2.0mph /  3.2km/h 3.0mph /  4.8km/h 69% 0.00in /  0mm
11:43 84.6 °F /  29.2 °C 71.4 °F /  21.9 °C 30.44in /  1030.7hPa East 0.9mph /  1.4km/h 2.0mph /  3.2km/h 65% 0.00in /  0mm
12:03 85.3 °F /  29.6 °C 73.6 °F /  23.1 °C 30.44in /  1030.7hPa WNW 0.9mph /  1.4km/h 2.0mph /  3.2km/h 68% 0.00in /  0mm
12:08 85.6 °F /  29.8 °C 73.0 °F /  22.8 °C 30.44in /  1030.7hPa East 0.9mph /  1.4km/h 2.0mph /  3.2km/h 66% 0.00in /  0mm
12:13 85.5 °F /  29.7 °C 72.0 °F /  22.2 °C 30.44in /  1030.7hPa SSW 0.9mph /  1.4km/h 2.0mph /  3.2km/h 64% 0.00in /  0mm
12:18 86.4 °F /  30.2 °C 73.2 °F /  22.9 °C 30.43in /  1030.4hPa SE 0.9mph /  1.4km/h 3.0mph /  4.8km/h 65% 0.00in /  0mm
12:28 87.1 °F /  30.6 °C 72.9 °F /  22.7 °C 30.43in /  1030.4hPa SE 0.9mph /  1.4km/h 4.0mph /  6.4km/h 63% 0.00in /  0mm
12:33 87.1 °F /  30.6 °C 72.9 °F /  22.7 °C 30.43in /  1030.4hPa SE 2.0mph /  3.2km/h 3.0mph /  4.8km/h 63% 0.00in /  0mm
12:43 86.7 °F /  30.4 °C 73.6 °F /  23.1 °C 30.42in /  1030hPa SE 2.9mph /  4.7km/h 5.0mph /  8km/h 65% 0.00in /  0mm
12:49 87.1 °F /  30.6 °C 72.0 °F /  22.2 °C 30.42in /  1030hPa SE 2.9mph /  4.7km/h 6.0mph /  9.7km/h 61% 0.00in /  0mm
12:54 87.4 °F /  30.8 °C 72.3 °F /  22.4 °C 30.42in /  1030hPa Calm   2.0mph /  3.2km/h 61% 0.00in /  0mm
13:14 87.4 °F /  30.8 °C 72.3 °F /  22.4 °C 30.42in /  1030hPa West 2.9mph /  4.7km/h 5.0mph /  8km/h 61% 0.00in /  0mm
13:24 88.0 °F /  31.1 °C 70.9 °F /  21.6 °C 30.42in /  1030hPa WNW 0.9mph /  1.4km/h 5.0mph /  8km/h 57% 0.00in /  0mm
13:29 87.3 °F /  30.7 °C 72.1 °F /  22.3 °C 30.42in /  1030hPa Calm   1.0mph /  1.6km/h 61% 0.00in /  0mm
13:34 87.1 °F /  30.6 °C 70.5 °F /  21.4 °C 30.41in /  1029.7hPa WSW 2.0mph /  3.2km/h 3.0mph /  4.8km/h 58% 0.00in /  0mm
13:39 85.6 °F /  29.8 °C 74.3 °F /  23.5 °C 30.41in /  1029.7hPa West 0.9mph /  1.4km/h 2.0mph /  3.2km/h 69% 0.00in /  0mm
13:44 86.2 °F /  30.1 °C 74.3 °F /  23.5 °C 30.41in /  1029.7hPa Calm   4.0mph /  6.4km/h 68% 0.00in /  0mm
13:54 87.4 °F /  30.8 °C 74.7 °F /  23.7 °C 30.41in /  1029.7hPa West 2.0mph /  3.2km/h 5.0mph /  8km/h 66% 0.00in /  0mm
13:59 87.8 °F /  31 °C 73.2 °F /  22.9 °C 30.41in /  1029.7hPa WNW 2.9mph /  4.7km/h 6.0mph /  9.7km/h 62% 0.00in /  0mm
14:04 88.2 °F /  31.2 °C 72.5 °F /  22.5 °C 30.41in /  1029.7hPa WNW 2.9mph /  4.7km/h 4.0mph /  6.4km/h 60% 0.00in /  0mm
14:09 88.3 °F /  31.3 °C 71.2 °F /  21.8 °C 30.41in /  1029.7hPa SE 2.0mph /  3.2km/h 2.0mph /  3.2km/h 57% 0.00in /  0mm
14:14 88.5 °F /  31.4 °C 73.4 °F /  23 °C 30.40in /  1029.3hPa West 2.9mph /  4.7km/h 5.0mph /  8km/h 61% 0.00in /  0mm
14:19 88.3 °F /  31.3 °C 72.1 °F /  22.3 °C 30.41in /  1029.7hPa ESE 0.9mph /  1.4km/h 2.0mph /  3.2km/h 59% 0.00in /  0mm
14:24 89.1 °F /  31.7 °C 72.3 °F /  22.4 °C 30.40in /  1029.3hPa ENE 2.0mph /  3.2km/h 6.0mph /  9.7km/h 58% 0.00in /  0mm
14:40 89.1 °F /  31.7 °C 72.9 °F /  22.7 °C 30.40in /  1029.3hPa WNW 2.9mph /  4.7km/h 5.0mph /  8km/h 59% 0.00in /  0mm
14:45 88.9 °F /  31.6 °C 71.6 °F /  22 °C 30.40in /  1029.3hPa West 4.9mph /  7.9km/h 5.0mph /  8km/h 57% 0.00in /  0mm
14:50 88.9 °F /  31.6 °C 71.6 °F /  22 °C 30.40in /  1029.3hPa WSW 2.0mph /  3.2km/h 4.0mph /  6.4km/h 57% 0.00in /  0mm
15:05 89.8 °F /  32.1 °C 71.4 °F /  21.9 °C 30.39in /  1029hPa WNW 2.9mph /  4.7km/h 6.0mph /  9.7km/h 55% 0.00in /  0mm
15:10 90.1 °F /  32.3 °C 70.7 °F /  21.5 °C 30.39in /  1029hPa ENE 2.9mph /  4.7km/h 4.0mph /  6.4km/h 53% 0.00in /  0mm
15:15 91.0 °F /  32.8 °C 71.6 °F /  22 °C 30.39in /  1029hPa ESE 0.9mph /  1.4km/h 4.0mph /  6.4km/h 53% 0.00in /  0mm
15:25 89.6 °F /  32 °C 73.4 °F /  23 °C 30.39in /  1029hPa SE 2.0mph /  3.2km/h 2.0mph /  3.2km/h 59% 0.00in /  0mm
15:30 90.0 °F /  32.2 °C 72.7 °F /  22.6 °C 30.38in /  1028.7hPa WNW 2.9mph /  4.7km/h 7.0mph /  11.3km/h 57% 0.00in /  0mm
15:35 89.6 °F /  32 °C 71.8 °F /  22.1 °C 30.39in /  1029hPa NW 0.9mph /  1.4km/h 5.0mph /  8km/h 56% 0.00in /  0mm
15:45 88.9 °F /  31.6 °C 71.6 °F /  22 °C 30.38in /  1028.7hPa NW 2.0mph /  3.2km/h 2.0mph /  3.2km/h 57% 0.00in /  0mm
15:50 87.8 °F /  31 °C 70.7 °F /  21.5 °C 30.38in /  1028.7hPa WNW 2.9mph /  4.7km/h 6.0mph /  9.7km/h 57% 0.00in /  0mm
15:55 87.1 °F /  30.6 °C 72.0 °F /  22.2 °C 30.38in /  1028.7hPa Calm   2.0mph /  3.2km/h 61% 0.00in /  0mm
16:00 87.1 °F /  30.6 °C 71.4 °F /  21.9 °C 30.38in /  1028.7hPa WSW 0.9mph /  1.4km/h 3.0mph /  4.8km/h 60% 0.00in /  0mm
16:05 86.4 °F /  30.2 °C 74.5 °F /  23.6 °C 30.38in /  1028.7hPa Calm   2.0mph /  3.2km/h 68% 0.00in /  0mm
16:25 83.1 °F /  28.4 °C 73.2 °F /  22.9 °C 30.39in /  1029hPa SE 0.9mph /  1.4km/h 2.0mph /  3.2km/h 72% 0.00in /  0mm
16:30 82.9 °F /  28.3 °C 73.0 °F /  22.8 °C 30.38in /  1028.7hPa Calm   2.0mph /  3.2km/h 72% 0.00in /  0mm
16:40 82.9 °F /  28.3 °C 72.5 °F /  22.5 °C 30.38in /  1028.7hPa ENE 2.9mph /  4.7km/h 5.0mph /  8km/h 71% 0.00in /  0mm
17:01 81.0 °F /  27.2 °C 72.0 °F /  22.2 °C 30.38in /  1028.7hPa ESE 0.9mph /  1.4km/h 5.0mph /  8km/h 74% 0.00in /  0mm
17:11 79.0 °F /  26.1 °C 72.7 °F /  22.6 °C 30.39in /  1029hPa ESE 2.9mph /  4.7km/h 6.0mph /  9.7km/h 81% 0.00in /  0mm
17:16 77.9 °F /  25.5 °C 72.0 °F /  22.2 °C 30.40in /  1029.3hPa ESE 2.9mph /  4.7km/h 9.0mph /  14.5km/h 82% 0.00in /  0mm
17:21 77.0 °F /  25 °C 72.1 °F /  22.3 °C 30.41in /  1029.7hPa ENE 0.9mph /  1.4km/h 13.0mph /  20.9km/h 85% 0.00in /  0mm
17:26 75.6 °F /  24.2 °C 71.4 °F /  21.9 °C 30.41in /  1029.7hPa NE 2.9mph /  4.7km/h 6.0mph /  9.7km/h 87% 0.13in /  3.3mm
17:31 73.9 °F /  23.3 °C 69.4 °F /  20.8 °C 30.41in /  1029.7hPa WSW 2.9mph /  4.7km/h 4.0mph /  6.4km/h 86% 0.15in /  3.81mm
17:46 71.2 °F /  21.8 °C 69.1 °F /  20.6 °C 30.42in /  1030hPa ENE 4.9mph /  7.9km/h 5.0mph /  8km/h 93% 0.42in /  10.67mm
17:51 70.5 °F /  21.4 °C 68.4 °F /  20.2 °C 30.42in /  1030hPa ESE 2.9mph /  4.7km/h 7.0mph /  11.3km/h 93% 0.56in /  14.22mm
17:56 70.2 °F /  21.2 °C 68.4 °F /  20.2 °C 30.43in /  1030.4hPa Calm   2.0mph /  3.2km/h 94% 0.64in /  16.26mm
18:01 70.0 °F /  21.1 °C 68.5 °F /  20.3 °C 30.44in /  1030.7hPa Calm   4.0mph /  6.4km/h 95% 0.70in /  17.78mm
18:06 70.0 °F /  21.1 °C 68.7 °F /  20.4 °C 30.43in /  1030.4hPa Calm   1.0mph /  1.6km/h 96% 0.78in /  19.81mm
18:16 69.8 °F /  21 °C 68.9 °F /  20.5 °C 30.42in /  1030hPa ESE 2.9mph /  4.7km/h 6.0mph /  9.7km/h 97% 1.00in /  25.4mm
18:26 70.2 °F /  21.2 °C 69.3 °F /  20.7 °C 30.42in /  1030hPa ENE 2.0mph /  3.2km/h 5.0mph /  8km/h 97% 0.90in /  22.86mm
18:36 70.5 °F /  21.4 °C 69.6 °F /  20.9 °C 30.42in /  1030hPa Calm   4.0mph /  6.4km/h 97% 0.84in /  21.34mm
18:51 70.9 °F /  21.6 °C 70.0 °F /  21.1 °C 30.42in /  1030hPa Calm   1.0mph /  1.6km/h 97% 0.48in /  12.19mm
18:56 70.9 °F /  21.6 °C 70.0 °F /  21.1 °C 30.42in /  1030hPa Calm   1.0mph /  1.6km/h 97% 0.40in /  10.16mm
19:01 71.1 °F /  21.7 °C 70.2 °F /  21.2 °C 30.43in /  1030.4hPa Calm   1.0mph /  1.6km/h 97% 0.34in /  8.64mm
19:06 71.1 °F /  21.7 °C 70.2 °F /  21.2 °C 30.43in /  1030.4hPa Calm     97% 0.26in /  6.6mm
19:16 71.6 °F /  22 °C 71.1 °F /  21.7 °C 30.43in /  1030.4hPa Calm   1.0mph /  1.6km/h 98% 0.04in /  1.02mm
19:21 71.6 °F /  22 °C 71.1 °F /  21.7 °C 30.43in /  1030.4hPa Calm   1.0mph /  1.6km/h 98% 0.02in /  0.51mm
19:26 71.6 °F /  22 °C 71.1 °F /  21.7 °C 30.44in /  1030.7hPa Calm   1.0mph /  1.6km/h 98% 0.01in /  0.25mm
19:31 71.8 °F /  22.1 °C 71.2 °F /  21.8 °C 30.45in /  1031hPa WNW 0.9mph /  1.4km/h 2.0mph /  3.2km/h 98% 0.00in /  0mm
19:37 71.6 °F /  22 °C 71.1 °F /  21.7 °C 30.45in /  1031hPa Calm     98% 0.00in /  0mm
19:52 71.6 °F /  22 °C 71.1 °F /  21.7 °C 30.45in /  1031hPa WNW 0.9mph /  1.4km/h 3.0mph /  4.8km/h 98% 0.00in /  0mm
19:57 71.4 °F /  21.9 °C 70.9 °F /  21.6 °C 30.45in /  1031hPa Calm   1.0mph /  1.6km/h 98% 0.00in /  0mm
20:07 71.4 °F /  21.9 °C 70.9 °F /  21.6 °C 30.45in /  1031hPa Calm     98% 0.00in /  0mm
20:12 71.4 °F /  21.9 °C 70.9 °F /  21.6 °C 30.45in /  1031hPa Calm   1.0mph /  1.6km/h 98% 0.00in /  0mm
20:17 71.4 °F /  21.9 °C 70.9 °F /  21.6 °C 30.45in /  1031hPa Calm     98% 0.00in /  0mm
20:22 71.4 °F /  21.9 °C 70.9 °F /  21.6 °C 30.45in /  1031hPa Calm     98% 0.01in /  0.25mm
20:27 71.4 °F /  21.9 °C 70.9 °F /  21.6 °C 30.45in /  1031hPa Calm     98% 0.01in /  0.25mm
20:32 71.4 °F /  21.9 °C 70.9 °F /  21.6 °C 30.46in /  1031.4hPa Calm     98% 0.01in /  0.25mm
20:42 71.4 °F /  21.9 °C 71.1 °F /  21.7 °C 30.45in /  1031hPa Calm     99% 0.01in /  0.25mm
20:47 71.4 °F /  21.9 °C 71.1 °F /  21.7 °C 30.45in /  1031hPa Calm     99% 0.01in /  0.25mm
20:52 71.4 °F /  21.9 °C 71.1 °F /  21.7 °C 30.45in /  1031hPa Calm     99% 0.01in /  0.25mm
20:57 71.2 °F /  21.8 °C 70.9 °F /  21.6 °C 30.45in /  1031hPa Calm     99% 0.01in /  0.25mm
21:02 71.2 °F /  21.8 °C 70.9 °F /  21.6 °C 30.45in /  1031hPa Calm     99% 0.01in /  0.25mm
21:07 71.2 °F /  21.8 °C 70.9 °F /  21.6 °C 30.45in /  1031hPa SE 0.9mph /  1.4km/h 1.0mph /  1.6km/h 99% 0.01in /  0.25mm
21:22 71.1 °F /  21.7 °C 70.7 °F /  21.5 °C 30.44in /  1030.7hPa Calm     99% 0.00in /  0mm
21:27 70.9 °F /  21.6 °C 70.5 °F /  21.4 °C 30.45in /  1031hPa Calm   1.0mph /  1.6km/h 99% 0.00in /  0mm
21:38 70.7 °F /  21.5 °C 70.3 °F /  21.3 °C 30.45in /  1031hPa Calm     99% 0.00in /  0mm
21:43 70.5 °F /  21.4 °C 70.2 °F /  21.2 °C 30.46in /  1031.4hPa Calm     99% 0.00in /  0mm
21:58 70.5 °F /  21.4 °C 70.2 °F /  21.2 °C 30.47in /  1031.7hPa Calm     99% 0.00in /  0mm
22:03 70.3 °F /  21.3 °C 70.0 °F /  21.1 °C 30.47in /  1031.7hPa Calm     99% 0.00in /  0mm
22:13 70.2 °F /  21.2 °C 69.8 °F /  21 °C 30.47in /  1031.7hPa Calm     99% 0.00in /  0mm
22:18 70.0 °F /  21.1 °C 69.6 °F /  20.9 °C 30.47in /  1031.7hPa Calm     99% 0.00in /  0mm
22:28 69.8 °F /  21 °C 69.4 °F /  20.8 °C 30.47in /  1031.7hPa Calm     99% 0.00in /  0mm
22:33 69.8 °F /  21 °C 69.4 °F /  20.8 °C 30.48in /  1032.1hPa Calm     99% 0.00in /  0mm
22:38 70.0 °F /  21.1 °C 69.6 °F /  20.9 °C 30.47in /  1031.7hPa Calm     99% 0.00in /  0mm
22:43 70.0 °F /  21.1 °C 69.6 °F /  20.9 °C 30.47in /  1031.7hPa Calm   1.0mph /  1.6km/h 99% 0.00in /  0mm
22:48 69.8 °F /  21 °C 69.4 °F /  20.8 °C 30.48in /  1032.1hPa Calm     99% 0.00in /  0mm
22:53 69.8 °F /  21 °C 69.4 °F /  20.8 °C 30.48in /  1032.1hPa Calm     99% 0.00in /  0mm
22:58 69.6 °F /  20.9 °C 69.3 °F /  20.7 °C 30.48in /  1032.1hPa Calm     99% 0.00in /  0mm
23:03 69.6 °F /  20.9 °C 69.3 °F /  20.7 °C 30.48in /  1032.1hPa Calm     99% 0.00in /  0mm
23:08 69.6 °F /  20.9 °C 69.3 °F /  20.7 °C 30.48in /  1032.1hPa Calm     99% 0.00in /  0mm
23:13 69.6 °F /  20.9 °C 69.3 °F /  20.7 °C 30.48in /  1032.1hPa Calm     99% 0.00in /  0mm
23:18 69.6 °F /  20.9 °C 69.3 °F /  20.7 °C 30.48in /  1032.1hPa Calm     99% 0.00in /  0mm
23:23 69.8 °F /  21 °C 69.4 °F /  20.8 °C 30.48in /  1032.1hPa Calm     99% 0.00in /  0mm
23:28 69.8 °F /  21 °C 69.4 °F /  20.8 °C 30.48in /  1032.1hPa Calm     99% 0.00in /  0mm
23:33 69.8 °F /  21 °C 69.4 °F /  20.8 °C 30.48in /  1032.1hPa Calm     99% 0.00in /  0mm
23:38 69.8 °F /  21 °C 69.4 °F /  20.8 °C 30.48in /  1032.1hPa Calm     99% 0.00in /  0mm
23:44 69.6 °F /  20.9 °C 69.3 °F /  20.7 °C 30.47in /  1031.7hPa Calm     99% 0.00in /  0mm
23:49 69.6 °F /  20.9 °C 69.3 °F /  20.7 °C 30.48in /  1032.1hPa Calm     99% 0.00in /  0mm
23:54 69.6 °F /  20.9 °C 69.3 °F /  20.7 °C 30.48in /  1032.1hPa SE 0.9mph /  1.4km/h 1.0mph /  1.6km/h 99% 0.00in /  0mm
23:59 69.6 °F /  20.9 °C 69.3 °F /  20.7 °C 30.48in /  1032.1hPa Calm     99% 0.00in /  0mm
WheeWeather.com
Compliments of Weather Underground - 2 mb